LHR weather

London Heathrow Airport
London, England, United Kingdom

Public forecast

Using degrees Celsius for public forecast. Weather courtesy of forecast.io.

METAR (pilot weather report)

Retrieved 2018/07/17 00:20 UTC (37 minutes ago):

EGLL 170020Z AUTO 27012KT 9999 NCD 17/11 Q1015 NOSIG

TAF (pilot weather forecast)

Forecast is more than 12 hours old.

Retrieved 2018/07/16 00:15 UTC (1 day ago):

TAF EGLL 162252Z 1700/1806 26006KT CAVOK PROB30 TEMPO 1709/1712 BKN040